Thursday, February 22, 2018, 12:07 PM EST
Back to Local

KPBG, Plattsburgh International Airport

Location: Plattsburgh, NY, United States Lat: 44.65
Local Time: 12:07 PM EST (17:07 GMT) Lon: -73.467
Time Zone: US/Eastern Elev: 239 ft

Show me the last for .
Show Decoded

2018-02-22 11:53 METAR KPBG 221653Z AUTO 36007KT 10SM CLR M03/M11 A3073 RMK AO2 SLP410 T10281106
                 =
2018-02-22 10:53 METAR KPBG 221553Z AUTO 02005KT 10SM CLR M03/M11 A3075 RMK AO2 SLP417 T10281106
                 =
2018-02-22 09:53 METAR KPBG 221453Z AUTO 02006KT 10SM CLR M03/M11 A3073 RMK AO2 SLP412 T10331106
                 51011 =
2018-02-22 08:53 METAR KPBG 221353Z AUTO 02007KT 10SM CLR M03/M11 A3073 RMK AO2 SLP410 T10331106
                 =
2018-02-22 07:53 METAR KPBG 221253Z AUTO 01009KT 10SM CLR M03/M11 A3073 RMK AO2 SLP408 T10331106
                 =
2018-02-22 06:53 METAR KPBG 221153Z AUTO 03007KT 10SM CLR M03/M10 A3070 RMK AO2 SLP399 T10331100
                 11017 21039 53013 =
2018-02-22 05:53 METAR KPBG 221053Z AUTO 36009KT 10SM CLR M03/M11 A3068 RMK AO2 SLP394 T10331106
                 $ =
2018-02-22 04:53 METAR KPBG 220953Z AUTO 35009KT 10SM CLR M02/M10 A3067 RMK AO2 SLP388 T10171100
                 $ =
2018-02-22 03:53 METAR KPBG 220853Z AUTO 34009KT 10SM CLR M02/M09 A3066 RMK AO2 SLP386 T10171094
                 51016 $ =
2018-02-22 02:53 METAR KPBG 220753Z AUTO 35008KT 10SM CLR M02/M10 A3065 RMK AO2 SLP382 T10221100
                 $ =
2018-02-22 01:53 METAR KPBG 220653Z AUTO 34005KT 10SM CLR M02/M08 A3064 RMK AO2 SLP378 T10221078
                 $ =
2018-02-22 00:53 METAR KPBG 220553Z AUTO 36006KT 10SM CLR M02/M07 A3062 RMK AO2 SLP371 T10221072
                 10067 21022 $ =
2018-02-21 23:53 METAR KPBG 220453Z AUTO 33006KT 10SM CLR 01/M07 A3058 RMK AO2 SLP359 T00061067
                 401561006 $ =
2018-02-21 22:53 METAR KPBG 220353Z AUTO 33009KT 10SM CLR 01/M05 A3055 RMK AO2 SLP348 T00111050 $
                 =
2018-02-21 20:53 METAR KPBG 220153Z AUTO VRB03KT 10SM CLR 03/M03 A3049 RMK AO2 SLP327 T00331033 =
2018-02-21 19:53 METAR KPBG 220053Z AUTO 31007KT 10SM FEW095 03/M03 A3046 RMK AO2 SLP317
                 T00331033 =
2018-02-21 18:53 METAR KPBG 212353Z AUTO 34005KT 10SM BKN090 05/M02 A3043 RMK AO2 SLP306
                 T00501022 10156 20050 51060 =
2018-02-21 17:53 METAR KPBG 212253Z AUTO 31007KT 10SM OVC085 07/M02 A3039 RMK AO2 SLP291
                 T00671017 =
2018-02-21 16:53 METAR KPBG 212153Z AUTO 32012KT 10SM FEW040 OVC070 08/02 A3032 RMK AO2 PRESRR
                 SLP270 T00830022 =
2018-02-21 15:53 METAR KPBG 212053Z AUTO 30006KT 10SM FEW039 OVC060 11/03 A3025 RMK AO2 PRESRR
                 SLP246 T01110028 53072 =
2018-02-21 14:53 METAR KPBG 211953Z AUTO 32010G21KT 10SM FEW032 BKN042 OVC055 12/06 A3018 RMK AO2
                 SLP220 T01220061 =
2018-02-21 13:53 METAR KPBG 211853Z AUTO 31009G20KT 10SM FEW024 OVC060 13/08 A3010 RMK AO2 SLP193
                 T01330078 =
2018-02-21 12:53 METAR KPBG 211753Z AUTO 35005KT 10SM OVC050 12/09 A3004 RMK AO2 SLP173 T01220094
                 10150 20072 53015 =

Support USWX by starting your Amazon purchase here.